sensor_id;sensor_type;location;lat;lon;timestamp;temperature;humidity
15231;DHT22;32569;51.762;8.564;2023-03-03T00:00:00;0.60;99.90
15231;DHT22;32569;51.762;8.564;2023-03-03T00:02:27;0.70;99.90
15231;DHT22;32569;51.762;8.564;2023-03-03T00:04:54;0.70;99.90
15231;DHT22;32569;51.762;8.564;2023-03-03T00:07:22;0.80;99.90
15231;DHT22;32569;51.762;8.564;2023-03-03T00:09:49;0.90;99.90
15231;DHT22;32569;51.762;8.564;2023-03-03T00:12:22;0.90;99.90
15231;DHT22;32569;51.762;8.564;2023-03-03T00:14:49;0.90;99.90
15231;DHT22;32569;51.762;8.564;2023-03-03T00:17:20;0.90;99.90
15231;DHT22;32569;51.762;8.564;2023-03-03T00:19:47;0.90;99.90
15231;DHT22;32569;51.762;8.564;2023-03-03T00:22:25;0.90;99.90
15231;DHT22;32569;51.762;8.564;2023-03-03T00:24:53;0.80;99.90
15231;DHT22;32569;51.762;8.564;2023-03-03T00:27:28;0.80;99.90
15231;DHT22;32569;51.762;8.564;2023-03-03T00:29:56;0.90;99.90
15231;DHT22;32569;51.762;8.564;2023-03-03T00:32:25;0.90;99.90
15231;DHT22;32569;51.762;8.564;2023-03-03T00:34:53;0.80;99.90
15231;DHT22;32569;51.762;8.564;2023-03-03T00:37:30;0.80;99.90
15231;DHT22;32569;51.762;8.564;2023-03-03T00:40:10;0.90;99.90
15231;DHT22;32569;51.762;8.564;2023-03-03T00:42:38;0.90;99.90
15231;DHT22;32569;51.762;8.564;2023-03-03T00:45:21;0.90;99.90
15231;DHT22;32569;51.762;8.564;2023-03-03T00:47:49;0.90;99.90
15231;DHT22;32569;51.762;8.564;2023-03-03T00:50:34;0.90;99.90
15231;DHT22;32569;51.762;8.564;2023-03-03T00:53:04;0.70;99.90
15231;DHT22;32569;51.762;8.564;2023-03-03T00:55:32;0.80;99.90
15231;DHT22;32569;51.762;8.564;2023-03-03T00:57:59;0.70;99.90
15231;DHT22;32569;51.762;8.564;2023-03-03T01:00:26;0.70;99.90
15231;DHT22;32569;51.762;8.564;2023-03-03T01:02:52;0.70;99.90
15231;DHT22;32569;51.762;8.564;2023-03-03T01:05:19;0.80;99.90
15231;DHT22;32569;51.762;8.564;2023-03-03T01:07:49;0.70;99.90
15231;DHT22;32569;51.762;8.564;2023-03-03T01:10:17;0.80;99.90
15231;DHT22;32569;51.762;8.564;2023-03-03T01:12:44;0.80;99.90
15231;DHT22;32569;51.762;8.564;2023-03-03T01:15:12;0.80;99.90
15231;DHT22;32569;51.762;8.564;2023-03-03T01:17:40;0.80;99.90
15231;DHT22;32569;51.762;8.564;2023-03-03T01:20:09;0.70;99.90
15231;DHT22;32569;51.762;8.564;2023-03-03T01:22:37;0.70;99.90
15231;DHT22;32569;51.762;8.564;2023-03-03T01:25:04;0.80;99.90
15231;DHT22;32569;51.762;8.564;2023-03-03T01:27:34;0.90;99.90
15231;DHT22;32569;51.762;8.564;2023-03-03T01:30:01;0.90;99.90
15231;DHT22;32569;51.762;8.564;2023-03-03T01:32:28;0.90;99.90
15231;DHT22;32569;51.762;8.564;2023-03-03T01:34:54;0.90;99.90
15231;DHT22;32569;51.762;8.564;2023-03-03T01:37:21;0.90;99.90
15231;DHT22;32569;51.762;8.564;2023-03-03T01:39:48;0.90;99.90
15231;DHT22;32569;51.762;8.564;2023-03-03T01:42:15;0.90;99.90
15231;DHT22;32569;51.762;8.564;2023-03-03T01:44:44;0.80;99.90
15231;DHT22;32569;51.762;8.564;2023-03-03T01:47:12;0.80;99.90
15231;DHT22;32569;51.762;8.564;2023-03-03T01:49:43;0.80;99.90
15231;DHT22;32569;51.762;8.564;2023-03-03T01:52:20;0.80;99.90
15231;DHT22;32569;51.762;8.564;2023-03-03T01:54:54;0.80;99.90
15231;DHT22;32569;51.762;8.564;2023-03-03T01:57:26;0.70;99.90
15231;DHT22;32569;51.762;8.564;2023-03-03T01:59:56;0.80;99.90
15231;DHT22;32569;51.762;8.564;2023-03-03T02:02:24;0.80;99.90
15231;DHT22;32569;51.762;8.564;2023-03-03T02:04:53;0.80;99.90
15231;DHT22;32569;51.762;8.564;2023-03-03T02:07:21;0.70;99.90
15231;DHT22;32569;51.762;8.564;2023-03-03T02:09:53;0.70;99.90
15231;DHT22;32569;51.762;8.564;2023-03-03T02:12:25;0.70;99.90
15231;DHT22;32569;51.762;8.564;2023-03-03T02:14:55;0.80;99.90
15231;DHT22;32569;51.762;8.564;2023-03-03T02:17:22;0.80;99.90
15231;DHT22;32569;51.762;8.564;2023-03-03T02:19:53;0.70;99.90
15231;DHT22;32569;51.762;8.564;2023-03-03T02:22:32;0.70;99.90
15231;DHT22;32569;51.762;8.564;2023-03-03T02:25:01;0.70;99.90
15231;DHT22;32569;51.762;8.564;2023-03-03T02:27:30;0.70;99.90
15231;DHT22;32569;51.762;8.564;2023-03-03T02:30:08;0.70;99.90
15231;DHT22;32569;51.762;8.564;2023-03-03T02:32:36;0.70;99.90
15231;DHT22;32569;51.762;8.564;2023-03-03T02:35:24;0.60;99.90
15231;DHT22;32569;51.762;8.564;2023-03-03T02:37:51;0.50;99.90
15231;DHT22;32569;51.762;8.564;2023-03-03T02:40:21;0.60;99.90
15231;DHT22;32569;51.762;8.564;2023-03-03T02:42:52;0.50;99.90
15231;DHT22;32569;51.762;8.564;2023-03-03T02:45:21;0.60;99.90
15231;DHT22;32569;51.762;8.564;2023-03-03T02:47:48;0.50;99.90
15231;DHT22;32569;51.762;8.564;2023-03-03T02:50:15;0.50;99.90
15231;DHT22;32569;51.762;8.564;2023-03-03T02:52:42;0.60;99.90
15231;DHT22;32569;51.762;8.564;2023-03-03T02:55:09;0.60;99.90
15231;DHT22;32569;51.762;8.564;2023-03-03T02:57:35;0.60;99.90
15231;DHT22;32569;51.762;8.564;2023-03-03T03:00:05;0.50;99.90
15231;DHT22;32569;51.762;8.564;2023-03-03T03:02:31;0.50;99.90
15231;DHT22;32569;51.762;8.564;2023-03-03T03:04:58;0.50;99.90
15231;DHT22;32569;51.762;8.564;2023-03-03T03:07:25;0.50;99.90
15231;DHT22;32569;51.762;8.564;2023-03-03T03:09:51;0.60;99.90
15231;DHT22;32569;51.762;8.564;2023-03-03T03:12:19;0.50;99.90
15231;DHT22;32569;51.762;8.564;2023-03-03T03:14:46;0.50;99.90
15231;DHT22;32569;51.762;8.564;2023-03-03T03:17:14;0.60;99.90
15231;DHT22;32569;51.762;8.564;2023-03-03T03:19:40;0.60;99.90
15231;DHT22;32569;51.762;8.564;2023-03-03T03:22:07;0.50;99.90
15231;DHT22;32569;51.762;8.564;2023-03-03T03:24:34;0.60;99.90
15231;DHT22;32569;51.762;8.564;2023-03-03T03:27:00;0.70;99.90
15231;DHT22;32569;51.762;8.564;2023-03-03T03:29:27;0.60;99.90
15231;DHT22;32569;51.762;8.564;2023-03-03T03:31:53;0.60;99.90
15231;DHT22;32569;51.762;8.564;2023-03-03T03:34:21;0.70;99.90
15231;DHT22;32569;51.762;8.564;2023-03-03T03:36:48;0.70;99.90
15231;DHT22;32569;51.762;8.564;2023-03-03T03:39:15;0.80;99.90
15231;DHT22;32569;51.762;8.564;2023-03-03T03:41:41;0.70;99.90
15231;DHT22;32569;51.762;8.564;2023-03-03T03:44:08;0.70;99.90
15231;DHT22;32569;51.762;8.564;2023-03-03T03:46:34;0.70;99.90
15231;DHT22;32569;51.762;8.564;2023-03-03T03:49:01;0.80;99.90
15231;DHT22;32569;51.762;8.564;2023-03-03T03:51:29;0.80;99.90
15231;DHT22;32569;51.762;8.564;2023-03-03T03:53:56;0.70;99.90
15231;DHT22;32569;51.762;8.564;2023-03-03T03:56:22;0.70;99.90
15231;DHT22;32569;51.762;8.564;2023-03-03T03:58:49;0.70;99.90
15231;DHT22;32569;51.762;8.564;2023-03-03T04:01:15;0.70;99.90
15231;DHT22;32569;51.762;8.564;2023-03-03T04:03:42;0.70;99.90
15231;DHT22;32569;51.762;8.564;2023-03-03T04:06:09;0.70;99.90
15231;DHT22;32569;51.762;8.564;2023-03-03T04:08:37;0.90;99.90
15231;DHT22;32569;51.762;8.564;2023-03-03T04:11:03;0.80;99.90
15231;DHT22;32569;51.762;8.564;2023-03-03T04:13:30;0.80;99.90
15231;DHT22;32569;51.762;8.564;2023-03-03T04:15:59;0.80;99.90
15231;DHT22;32569;51.762;8.564;2023-03-03T04:18:26;0.70;99.90
15231;DHT22;32569;51.762;8.564;2023-03-03T04:20:52;0.70;99.90
15231;DHT22;32569;51.762;8.564;2023-03-03T04:23:20;0.80;99.90
15231;DHT22;32569;51.762;8.564;2023-03-03T04:25:48;0.80;99.90
15231;DHT22;32569;51.762;8.564;2023-03-03T04:28:15;0.60;99.90
15231;DHT22;32569;51.762;8.564;2023-03-03T04:30:42;0.70;99.90
15231;DHT22;32569;51.762;8.564;2023-03-03T04:33:09;0.60;99.90
15231;DHT22;32569;51.762;8.564;2023-03-03T04:35:36;0.60;99.90
15231;DHT22;32569;51.762;8.564;2023-03-03T04:38:02;0.50;99.90
15231;DHT22;32569;51.762;8.564;2023-03-03T04:40:29;0.40;99.90
15231;DHT22;32569;51.762;8.564;2023-03-03T04:42:57;0.50;99.90
15231;DHT22;32569;51.762;8.564;2023-03-03T04:45:24;0.50;99.90
15231;DHT22;32569;51.762;8.564;2023-03-03T04:47:50;0.50;99.90
15231;DHT22;32569;51.762;8.564;2023-03-03T04:50:17;0.50;99.90
15231;DHT22;32569;51.762;8.564;2023-03-03T04:52:44;0.50;99.90
15231;DHT22;32569;51.762;8.564;2023-03-03T04:55:11;0.50;99.90
15231;DHT22;32569;51.762;8.564;2023-03-03T04:57:38;0.50;99.90
15231;DHT22;32569;51.762;8.564;2023-03-03T05:00:07;0.50;99.90
15231;DHT22;32569;51.762;8.564;2023-03-03T05:02:34;0.50;99.90
15231;DHT22;32569;51.762;8.564;2023-03-03T05:05:01;0.50;99.90
15231;DHT22;32569;51.762;8.564;2023-03-03T05:07:27;0.50;99.90
15231;DHT22;32569;51.762;8.564;2023-03-03T05:09:54;0.50;99.90
15231;DHT22;32569;51.762;8.564;2023-03-03T05:12:21;0.60;99.90
15231;DHT22;32569;51.762;8.564;2023-03-03T05:14:47;0.60;99.90
15231;DHT22;32569;51.762;8.564;2023-03-03T05:17:15;0.50;99.90
15231;DHT22;32569;51.762;8.564;2023-03-03T05:19:42;0.40;99.90
15231;DHT22;32569;51.762;8.564;2023-03-03T05:22:08;0.50;99.90
15231;DHT22;32569;51.762;8.564;2023-03-03T05:24:35;0.50;99.90
15231;DHT22;32569;51.762;8.564;2023-03-03T05:27:02;0.50;99.90
15231;DHT22;32569;51.762;8.564;2023-03-03T05:29:30;0.60;99.90
15231;DHT22;32569;51.762;8.564;2023-03-03T05:31:57;0.60;99.90
15231;DHT22;32569;51.762;8.564;2023-03-03T05:34:26;0.50;99.90
15231;DHT22;32569;51.762;8.564;2023-03-03T05:36:53;0.70;99.90
15231;DHT22;32569;51.762;8.564;2023-03-03T05:39:19;0.70;99.90
15231;DHT22;32569;51.762;8.564;2023-03-03T05:41:46;0.60;99.90
15231;DHT22;32569;51.762;8.564;2023-03-03T05:44:12;0.60;99.90
15231;DHT22;32569;51.762;8.564;2023-03-03T05:46:39;0.60;99.90
15231;DHT22;32569;51.762;8.564;2023-03-03T05:49:07;0.70;99.90
15231;DHT22;32569;51.762;8.564;2023-03-03T05:51:35;0.80;99.90
15231;DHT22;32569;51.762;8.564;2023-03-03T05:54:02;0.80;99.90
15231;DHT22;32569;51.762;8.564;2023-03-03T05:56:28;0.60;99.90
15231;DHT22;32569;51.762;8.564;2023-03-03T05:58:55;0.50;99.90
15231;DHT22;32569;51.762;8.564;2023-03-03T06:01:21;0.50;99.90
15231;DHT22;32569;51.762;8.564;2023-03-03T06:03:48;0.60;99.90
15231;DHT22;32569;51.762;8.564;2023-03-03T06:06:15;0.50;99.90
15231;DHT22;32569;51.762;8.564;2023-03-03T06:08:45;0.50;99.90
15231;DHT22;32569;51.762;8.564;2023-03-03T06:11:11;0.60;99.90
15231;DHT22;32569;51.762;8.564;2023-03-03T06:13:38;0.60;99.90
15231;DHT22;32569;51.762;8.564;2023-03-03T06:16:06;0.50;99.90
15231;DHT22;32569;51.762;8.564;2023-03-03T06:18:33;0.50;99.90
15231;DHT22;32569;51.762;8.564;2023-03-03T06:20:59;0.50;99.90
15231;DHT22;32569;51.762;8.564;2023-03-03T06:23:26;0.60;99.90
15231;DHT22;32569;51.762;8.564;2023-03-03T06:25:54;0.60;99.90
15231;DHT22;32569;51.762;8.564;2023-03-03T06:28:21;0.60;99.90
15231;DHT22;32569;51.762;8.564;2023-03-03T06:30:52;0.60;99.90
15231;DHT22;32569;51.762;8.564;2023-03-03T06:33:18;0.60;99.90
15231;DHT22;32569;51.762;8.564;2023-03-03T06:35:48;0.50;99.90
15231;DHT22;32569;51.762;8.564;2023-03-03T06:38:15;0.60;99.90
15231;DHT22;32569;51.762;8.564;2023-03-03T06:40:41;0.50;99.90
15231;DHT22;32569;51.762;8.564;2023-03-03T06:43:09;0.50;99.90
15231;DHT22;32569;51.762;8.564;2023-03-03T06:45:36;0.40;99.90
15231;DHT22;32569;51.762;8.564;2023-03-03T06:48:04;0.50;99.90
15231;DHT22;32569;51.762;8.564;2023-03-03T06:50:31;0.40;99.90
15231;DHT22;32569;51.762;8.564;2023-03-03T06:53:03;0.50;99.90
15231;DHT22;32569;51.762;8.564;2023-03-03T06:55:30;0.40;99.90
15231;DHT22;32569;51.762;8.564;2023-03-03T06:57:58;0.40;99.90
15231;DHT22;32569;51.762;8.564;2023-03-03T07:00:27;0.40;99.90
15231;DHT22;32569;51.762;8.564;2023-03-03T07:02:59;0.40;99.90
15231;DHT22;32569;51.762;8.564;2023-03-03T07:05:26;0.50;99.90
15231;DHT22;32569;51.762;8.564;2023-03-03T07:07:55;0.50;99.90
15231;DHT22;32569;51.762;8.564;2023-03-03T07:10:24;0.50;99.90
15231;DHT22;32569;51.762;8.564;2023-03-03T07:12:51;0.50;99.90
15231;DHT22;32569;51.762;8.564;2023-03-03T07:15:21;0.50;99.90
15231;DHT22;32569;51.762;8.564;2023-03-03T07:17:54;0.60;99.90
15231;DHT22;32569;51.762;8.564;2023-03-03T07:20:27;0.70;99.90
15231;DHT22;32569;51.762;8.564;2023-03-03T07:22:55;0.60;99.90
15231;DHT22;32569;51.762;8.564;2023-03-03T07:25:28;0.50;99.90
15231;DHT22;32569;51.762;8.564;2023-03-03T07:27:58;0.40;99.90
15231;DHT22;32569;51.762;8.564;2023-03-03T07:30:27;0.40;99.90
15231;DHT22;32569;51.762;8.564;2023-03-03T07:32:57;0.50;99.90
15231;DHT22;32569;51.762;8.564;2023-03-03T07:35:36;0.40;99.90
15231;DHT22;32569;51.762;8.564;2023-03-03T07:38:16;0.50;99.90
15231;DHT22;32569;51.762;8.564;2023-03-03T07:40:48;0.60;99.90
15231;DHT22;32569;51.762;8.564;2023-03-03T07:43:33;0.60;99.90
15231;DHT22;32569;51.762;8.564;2023-03-03T07:46:13;0.60;99.90
15231;DHT22;32569;51.762;8.564;2023-03-03T07:48:43;0.60;99.90
15231;DHT22;32569;51.762;8.564;2023-03-03T07:51:15;0.60;99.90
15231;DHT22;32569;51.762;8.564;2023-03-03T07:53:43;0.60;99.90
15231;DHT22;32569;51.762;8.564;2023-03-03T07:56:16;0.50;99.90
15231;DHT22;32569;51.762;8.564;2023-03-03T07:58:45;0.50;99.90
15231;DHT22;32569;51.762;8.564;2023-03-03T08:01:28;0.50;99.90
15231;DHT22;32569;51.762;8.564;2023-03-03T08:03:58;0.50;99.90
15231;DHT22;32569;51.762;8.564;2023-03-03T08:06:50;0.50;99.90
15231;DHT22;32569;51.762;8.564;2023-03-03T08:09:33;0.60;99.90
15231;DHT22;32569;51.762;8.564;2023-03-03T08:12:21;0.50;99.90
15231;DHT22;32569;51.762;8.564;2023-03-03T08:14:51;0.60;99.90
15231;DHT22;32569;51.762;8.564;2023-03-03T08:17:20;0.50;99.90
15231;DHT22;32569;51.762;8.564;2023-03-03T08:19:49;0.50;99.90
15231;DHT22;32569;51.762;8.564;2023-03-03T08:22:17;0.60;99.90
15231;DHT22;32569;51.762;8.564;2023-03-03T08:24:44;0.60;99.90
15231;DHT22;32569;51.762;8.564;2023-03-03T08:27:11;0.60;99.90
15231;DHT22;32569;51.762;8.564;2023-03-03T08:29:38;0.50;99.90
15231;DHT22;32569;51.762;8.564;2023-03-03T08:32:04;0.60;99.90
15231;DHT22;32569;51.762;8.564;2023-03-03T08:34:31;0.50;99.90
15231;DHT22;32569;51.762;8.564;2023-03-03T08:36:59;0.60;99.90
15231;DHT22;32569;51.762;8.564;2023-03-03T08:39:25;0.70;99.90
15231;DHT22;32569;51.762;8.564;2023-03-03T08:41:52;0.80;99.90
15231;DHT22;32569;51.762;8.564;2023-03-03T08:44:19;0.80;99.90
15231;DHT22;32569;51.762;8.564;2023-03-03T08:46:45;0.90;99.90
15231;DHT22;32569;51.762;8.564;2023-03-03T08:49:12;0.80;99.90
15231;DHT22;32569;51.762;8.564;2023-03-03T08:51:39;0.90;99.90
15231;DHT22;32569;51.762;8.564;2023-03-03T08:54:07;1.00;99.90
15231;DHT22;32569;51.762;8.564;2023-03-03T08:56:33;1.00;99.90
15231;DHT22;32569;51.762;8.564;2023-03-03T08:59:00;0.90;99.90
15231;DHT22;32569;51.762;8.564;2023-03-03T09:01:26;1.00;99.90
15231;DHT22;32569;51.762;8.564;2023-03-03T09:03:53;0.80;99.90
15231;DHT22;32569;51.762;8.564;2023-03-03T09:06:20;0.80;99.90
15231;DHT22;32569;51.762;8.564;2023-03-03T09:08:46;0.70;99.90
15231;DHT22;32569;51.762;8.564;2023-03-03T09:11:21;0.80;99.90
15231;DHT22;32569;51.762;8.564;2023-03-03T09:13:49;0.90;99.90
15231;DHT22;32569;51.762;8.564;2023-03-03T09:16:17;0.90;99.90
15231;DHT22;32569;51.762;8.564;2023-03-03T09:18:45;0.90;99.90
15231;DHT22;32569;51.762;8.564;2023-03-03T09:21:20;1.10;99.90
15231;DHT22;32569;51.762;8.564;2023-03-03T09:23:51;1.10;99.90
15231;DHT22;32569;51.762;8.564;2023-03-03T09:26:25;1.20;99.90
15231;DHT22;32569;51.762;8.564;2023-03-03T09:28:57;1.20;99.90
15231;DHT22;32569;51.762;8.564;2023-03-03T09:31:26;1.00;99.90
15231;DHT22;32569;51.762;8.564;2023-03-03T09:33:53;1.00;99.90
15231;DHT22;32569;51.762;8.564;2023-03-03T09:36:24;1.00;99.90
15231;DHT22;32569;51.762;8.564;2023-03-03T09:38:52;1.10;99.90
15231;DHT22;32569;51.762;8.564;2023-03-03T09:41:36;1.00;99.90
15231;DHT22;32569;51.762;8.564;2023-03-03T09:44:32;0.90;99.90
15231;DHT22;32569;51.762;8.564;2023-03-03T09:47:12;0.90;99.90
15231;DHT22;32569;51.762;8.564;2023-03-03T09:49:50;1.00;99.90
15231;DHT22;32569;51.762;8.564;2023-03-03T09:52:29;1.10;99.90
15231;DHT22;32569;51.762;8.564;2023-03-03T09:55:08;1.10;99.90
15231;DHT22;32569;51.762;8.564;2023-03-03T09:57:53;1.20;99.90
15231;DHT22;32569;51.762;8.564;2023-03-03T10:00:34;1.30;99.90
15231;DHT22;32569;51.762;8.564;2023-03-03T10:03:22;1.40;99.90
15231;DHT22;32569;51.762;8.564;2023-03-03T10:05:57;1.40;99.90
15231;DHT22;32569;51.762;8.564;2023-03-03T10:08:36;1.40;99.90
15231;DHT22;32569;51.762;8.564;2023-03-03T10:11:15;1.40;99.90
15231;DHT22;32569;51.762;8.564;2023-03-03T10:14:12;1.50;99.90
15231;DHT22;32569;51.762;8.564;2023-03-03T10:16:49;1.50;99.90
15231;DHT22;32569;51.762;8.564;2023-03-03T10:19:31;1.60;99.90
15231;DHT22;32569;51.762;8.564;2023-03-03T10:22:12;1.50;99.90
15231;DHT22;32569;51.762;8.564;2023-03-03T10:24:46;1.80;99.90
15231;DHT22;32569;51.762;8.564;2023-03-03T10:27:28;1.90;99.90
15231;DHT22;32569;51.762;8.564;2023-03-03T10:30:10;1.90;99.90
15231;DHT22;32569;51.762;8.564;2023-03-03T10:32:45;2.00;99.90
15231;DHT22;32569;51.762;8.564;2023-03-03T10:38:23;2.20;99.90
15231;DHT22;32569;51.762;8.564;2023-03-03T10:40:55;2.30;99.90
15231;DHT22;32569;51.762;8.564;2023-03-03T10:43:38;2.20;99.90
15231;DHT22;32569;51.762;8.564;2023-03-03T10:46:33;2.30;99.90
15231;DHT22;32569;51.762;8.564;2023-03-03T10:49:26;2.20;99.90
15231;DHT22;32569;51.762;8.564;2023-03-03T10:52:07;2.30;99.90
15231;DHT22;32569;51.762;8.564;2023-03-03T10:54:46;2.40;99.90
15231;DHT22;32569;51.762;8.564;2023-03-03T10:57:23;2.50;99.90
15231;DHT22;32569;51.762;8.564;2023-03-03T10:59:58;2.50;99.90
15231;DHT22;32569;51.762;8.564;2023-03-03T11:02:34;2.60;99.90
15231;DHT22;32569;51.762;8.564;2023-03-03T11:05:12;2.60;99.90
15231;DHT22;32569;51.762;8.564;2023-03-03T11:07:45;2.60;99.90
15231;DHT22;32569;51.762;8.564;2023-03-03T11:10:27;2.70;99.90
15231;DHT22;32569;51.762;8.564;2023-03-03T11:13:04;2.50;99.90
15231;DHT22;32569;51.762;8.564;2023-03-03T11:18:34;2.70;99.90
15231;DHT22;32569;51.762;8.564;2023-03-03T11:21:12;2.70;99.90
15231;DHT22;32569;51.762;8.564;2023-03-03T11:23:57;2.60;99.90
15231;DHT22;32569;51.762;8.564;2023-03-03T11:26:33;2.60;99.90
15231;DHT22;32569;51.762;8.564;2023-03-03T11:29:21;2.90;99.90
15231;DHT22;32569;51.762;8.564;2023-03-03T11:31:55;3.00;99.90
15231;DHT22;32569;51.762;8.564;2023-03-03T11:34:39;2.80;99.90
15231;DHT22;32569;51.762;8.564;2023-03-03T11:37:12;2.70;99.90
15231;DHT22;32569;51.762;8.564;2023-03-03T11:39:43;2.80;99.90
15231;DHT22;32569;51.762;8.564;2023-03-03T11:42:14;3.00;99.90
15231;DHT22;32569;51.762;8.564;2023-03-03T11:44:48;3.20;99.90
15231;DHT22;32569;51.762;8.564;2023-03-03T11:47:18;3.30;99.90
15231;DHT22;32569;51.762;8.564;2023-03-03T11:49:52;3.40;99.90
15231;DHT22;32569;51.762;8.564;2023-03-03T11:52:27;3.40;99.90
15231;DHT22;32569;51.762;8.564;2023-03-03T11:55:00;3.40;99.90
15231;DHT22;32569;51.762;8.564;2023-03-03T11:57:31;3.30;99.90
15231;DHT22;32569;51.762;8.564;2023-03-03T12:00:23;3.20;99.90
15231;DHT22;32569;51.762;8.564;2023-03-03T12:02:58;3.20;99.90
15231;DHT22;32569;51.762;8.564;2023-03-03T12:05:45;3.40;99.90
15231;DHT22;32569;51.762;8.564;2023-03-03T12:08:26;3.40;99.90
15231;DHT22;32569;51.762;8.564;2023-03-03T12:11:01;3.20;99.90
15231;DHT22;32569;51.762;8.564;2023-03-03T12:13:39;3.20;99.90
15231;DHT22;32569;51.762;8.564;2023-03-03T12:16:13;3.40;99.90
15231;DHT22;32569;51.762;8.564;2023-03-03T12:18:55;3.50;99.90
15231;DHT22;32569;51.762;8.564;2023-03-03T12:21:33;3.60;99.90
15231;DHT22;32569;51.762;8.564;2023-03-03T12:27:02;3.40;99.90
15231;DHT22;32569;51.762;8.564;2023-03-03T12:29:40;3.50;99.90
15231;DHT22;32569;51.762;8.564;2023-03-03T12:32:20;3.40;99.90
15231;DHT22;32569;51.762;8.564;2023-03-03T12:34:54;3.30;99.90
15231;DHT22;32569;51.762;8.564;2023-03-03T12:40:24;3.50;99.90
15231;DHT22;32569;51.762;8.564;2023-03-03T12:43:22;3.80;99.90
15231;DHT22;32569;51.762;8.564;2023-03-03T12:45:59;3.90;99.90
15231;DHT22;32569;51.762;8.564;2023-03-03T12:48:34;3.90;99.90
15231;DHT22;32569;51.762;8.564;2023-03-03T12:51:06;4.00;99.90
15231;DHT22;32569;51.762;8.564;2023-03-03T12:53:49;4.10;99.90
15231;DHT22;32569;51.762;8.564;2023-03-03T12:56:26;4.10;99.90
15231;DHT22;32569;51.762;8.564;2023-03-03T12:58:59;4.20;99.90
15231;DHT22;32569;51.762;8.564;2023-03-03T13:01:37;4.30;99.90
15231;DHT22;32569;51.762;8.564;2023-03-03T13:04:10;4.30;99.90
15231;DHT22;32569;51.762;8.564;2023-03-03T13:06:41;4.40;99.90
15231;DHT22;32569;51.762;8.564;2023-03-03T13:09:24;4.50;99.90
15231;DHT22;32569;51.762;8.564;2023-03-03T13:12:02;4.30;99.90
15231;DHT22;32569;51.762;8.564;2023-03-03T13:14:34;3.90;99.90
15231;DHT22;32569;51.762;8.564;2023-03-03T13:17:14;4.00;99.90
15231;DHT22;32569;51.762;8.564;2023-03-03T13:19:45;4.00;99.90
15231;DHT22;32569;51.762;8.564;2023-03-03T13:22:17;3.80;99.90
15231;DHT22;32569;51.762;8.564;2023-03-03T13:24:56;3.60;99.90
15231;DHT22;32569;51.762;8.564;2023-03-03T13:27:26;3.50;99.90
15231;DHT22;32569;51.762;8.564;2023-03-03T13:30:00;3.40;99.90
15231;DHT22;32569;51.762;8.564;2023-03-03T13:32:32;3.40;99.90
15231;DHT22;32569;51.762;8.564;2023-03-03T13:35:06;3.30;99.90
15231;DHT22;32569;51.762;8.564;2023-03-03T13:37:36;3.40;99.90
15231;DHT22;32569;51.762;8.564;2023-03-03T13:40:14;3.30;99.90
15231;DHT22;32569;51.762;8.564;2023-03-03T13:42:45;3.40;99.90
15231;DHT22;32569;51.762;8.564;2023-03-03T13:45:17;3.60;99.90
15231;DHT22;32569;51.762;8.564;2023-03-03T13:47:49;3.70;99.90
15231;DHT22;32569;51.762;8.564;2023-03-03T13:50:21;4.00;99.90
15231;DHT22;32569;51.762;8.564;2023-03-03T13:53:00;4.10;99.90
15231;DHT22;32569;51.762;8.564;2023-03-03T13:55:34;4.20;99.90
15231;DHT22;32569;51.762;8.564;2023-03-03T13:58:12;4.10;99.90
15231;DHT22;32569;51.762;8.564;2023-03-03T14:00:53;4.20;99.90
15231;DHT22;32569;51.762;8.564;2023-03-03T14:03:32;4.10;99.90
15231;DHT22;32569;51.762;8.564;2023-03-03T14:06:04;4.10;99.90
15231;DHT22;32569;51.762;8.564;2023-03-03T14:08:43;4.10;99.90
15231;DHT22;32569;51.762;8.564;2023-03-03T14:11:18;4.20;99.90
15231;DHT22;32569;51.762;8.564;2023-03-03T14:13:56;4.20;99.90
15231;DHT22;32569;51.762;8.564;2023-03-03T14:16:45;4.10;99.90
15231;DHT22;32569;51.762;8.564;2023-03-03T14:19:18;3.90;99.90
15231;DHT22;32569;51.762;8.564;2023-03-03T14:21:56;4.00;99.90
15231;DHT22;32569;51.762;8.564;2023-03-03T14:24:25;3.90;99.90
15231;DHT22;32569;51.762;8.564;2023-03-03T14:26:56;4.00;99.90
15231;DHT22;32569;51.762;8.564;2023-03-03T14:29:30;4.00;99.90
15231;DHT22;32569;51.762;8.564;2023-03-03T14:31:58;4.00;99.90
15231;DHT22;32569;51.762;8.564;2023-03-03T14:34:34;3.90;99.90
15231;DHT22;32569;51.762;8.564;2023-03-03T14:37:22;4.00;99.90
15231;DHT22;32569;51.762;8.564;2023-03-03T14:39:59;4.10;99.90
15231;DHT22;32569;51.762;8.564;2023-03-03T14:42:34;4.10;99.90
15231;DHT22;32569;51.762;8.564;2023-03-03T14:45:18;4.10;99.90
15231;DHT22;32569;51.762;8.564;2023-03-03T14:47:45;4.20;99.90
15231;DHT22;32569;51.762;8.564;2023-03-03T14:50:30;4.10;99.90
15231;DHT22;32569;51.762;8.564;2023-03-03T14:53:12;4.10;99.90
15231;DHT22;32569;51.762;8.564;2023-03-03T14:55:41;4.10;99.90
15231;DHT22;32569;51.762;8.564;2023-03-03T14:58:28;4.10;99.90
15231;DHT22;32569;51.762;8.564;2023-03-03T15:01:16;4.30;99.90
15231;DHT22;32569;51.762;8.564;2023-03-03T15:03:48;4.30;99.90
15231;DHT22;32569;51.762;8.564;2023-03-03T15:06:29;4.20;99.90
15231;DHT22;32569;51.762;8.564;2023-03-03T15:08:56;4.30;99.90
15231;DHT22;32569;51.762;8.564;2023-03-03T15:11:43;4.20;99.90
15231;DHT22;32569;51.762;8.564;2023-03-03T15:14:14;4.40;99.90
15231;DHT22;32569;51.762;8.564;2023-03-03T15:16:41;4.40;99.90
15231;DHT22;32569;51.762;8.564;2023-03-03T15:19:21;4.50;99.90
15231;DHT22;32569;51.762;8.564;2023-03-03T15:22:00;4.50;99.90
15231;DHT22;32569;51.762;8.564;2023-03-03T15:24:35;4.50;99.90
15231;DHT22;32569;51.762;8.564;2023-03-03T15:27:08;4.60;99.90
15231;DHT22;32569;51.762;8.564;2023-03-03T15:29:43;4.60;99.90
15231;DHT22;32569;51.762;8.564;2023-03-03T15:32:18;4.40;99.90
15231;DHT22;32569;51.762;8.564;2023-03-03T15:34:52;4.20;99.90
15231;DHT22;32569;51.762;8.564;2023-03-03T15:37:31;4.20;99.90
15231;DHT22;32569;51.762;8.564;2023-03-03T15:40:08;4.20;99.90
15231;DHT22;32569;51.762;8.564;2023-03-03T15:42:44;4.30;99.90
15231;DHT22;32569;51.762;8.564;2023-03-03T15:45:22;4.40;99.90
15231;DHT22;32569;51.762;8.564;2023-03-03T15:48:09;4.40;99.90
15231;DHT22;32569;51.762;8.564;2023-03-03T15:50:44;4.40;99.90
15231;DHT22;32569;51.762;8.564;2023-03-03T15:53:34;4.30;99.90
15231;DHT22;32569;51.762;8.564;2023-03-03T15:56:12;4.30;99.90
15231;DHT22;32569;51.762;8.564;2023-03-03T15:58:59;4.10;99.90
15231;DHT22;32569;51.762;8.564;2023-03-03T16:01:32;4.00;99.90
15231;DHT22;32569;51.762;8.564;2023-03-03T16:04:03;3.90;99.90
15231;DHT22;32569;51.762;8.564;2023-03-03T16:06:40;4.00;99.90
15231;DHT22;32569;51.762;8.564;2023-03-03T16:09:21;3.90;99.90
15231;DHT22;32569;51.762;8.564;2023-03-03T16:11:52;3.80;99.90
15231;DHT22;32569;51.762;8.564;2023-03-03T16:14:37;3.80;99.90
15231;DHT22;32569;51.762;8.564;2023-03-03T16:17:17;3.80;99.90
15231;DHT22;32569;51.762;8.564;2023-03-03T16:19:50;3.70;99.90
15231;DHT22;32569;51.762;8.564;2023-03-03T16:22:38;3.70;99.90
15231;DHT22;32569;51.762;8.564;2023-03-03T16:25:18;3.80;99.90
15231;DHT22;32569;51.762;8.564;2023-03-03T16:27:50;3.70;99.90